createdAt,value
2023-04-27T00:01:56.378Z,17.54
2023-04-27T00:04:25.590Z,17.52
2023-04-27T00:06:54.286Z,17.52
2023-04-27T00:09:22.646Z,17.51
2023-04-27T00:11:50.879Z,17.51
2023-04-27T00:14:20.092Z,17.50
2023-04-27T00:16:49.421Z,17.50
2023-04-27T00:19:19.022Z,17.48
2023-04-27T00:21:47.912Z,17.49
2023-04-27T00:24:17.265Z,17.47
2023-04-27T00:26:46.072Z,17.47
2023-04-27T00:29:15.425Z,17.47
2023-04-27T00:31:44.599Z,17.47
2023-04-27T00:34:13.510Z,17.45
2023-04-27T00:36:41.936Z,17.44
2023-04-27T00:39:10.388Z,17.44
2023-04-27T00:41:39.296Z,17.43
2023-04-27T00:44:08.277Z,17.43
2023-04-27T00:46:37.499Z,17.42
2023-04-27T00:49:06.276Z,17.41
2023-04-27T00:51:35.035Z,17.41
2023-04-27T00:54:04.070Z,17.42
2023-04-27T00:56:33.489Z,17.41
2023-04-27T00:59:02.050Z,17.42
2023-04-27T01:01:31.069Z,17.40
2023-04-27T01:04:00.098Z,17.38
2023-04-27T01:06:30.530Z,17.38
2023-04-27T01:08:58.994Z,17.38
2023-04-27T01:11:29.029Z,17.37
2023-04-27T01:13:57.845Z,17.38
2023-04-27T01:16:26.271Z,17.37
2023-04-27T01:18:55.613Z,17.35
2023-04-27T01:21:24.672Z,17.35
2023-04-27T01:23:53.561Z,17.34
2023-04-27T01:26:22.960Z,17.34
2023-04-27T01:28:51.321Z,17.33
2023-04-27T01:31:21.273Z,17.32
2023-04-27T01:33:50.471Z,17.31
2023-04-27T01:36:19.436Z,17.33
2023-04-27T01:38:49.456Z,17.31
2023-04-27T01:41:18.355Z,17.31
2023-04-27T01:43:46.710Z,17.31
2023-04-27T01:46:15.170Z,17.30
2023-04-27T01:48:44.929Z,17.29
2023-04-27T01:51:12.756Z,17.29
2023-04-27T01:53:42.029Z,17.28
2023-04-27T01:56:11.330Z,17.27
2023-04-27T01:58:40.274Z,17.27
2023-04-27T02:01:09.608Z,17.28
2023-04-27T02:03:39.163Z,17.27
2023-04-27T02:06:08.305Z,17.26
2023-04-27T02:08:36.758Z,17.26
2023-04-27T02:11:05.574Z,17.25
2023-04-27T02:13:34.483Z,17.24
2023-04-27T02:16:03.590Z,17.23
2023-04-27T02:18:32.519Z,17.23
2023-04-27T02:21:01.647Z,17.22
2023-04-27T02:23:30.574Z,17.22
2023-04-27T02:25:59.469Z,17.21
2023-04-27T02:28:28.905Z,17.21
2023-04-27T02:30:57.952Z,17.21
2023-04-27T02:33:27.349Z,17.19
2023-04-27T02:35:56.364Z,17.19
2023-04-27T02:38:25.362Z,17.17
2023-04-27T02:40:54.292Z,17.17
2023-04-27T02:43:23.310Z,17.16
2023-04-27T02:45:52.490Z,17.15
2023-04-27T02:48:21.588Z,17.15
2023-04-27T02:50:50.543Z,17.14
2023-04-27T02:53:19.023Z,17.14
2023-04-27T02:55:47.977Z,17.12
2023-04-27T02:58:16.923Z,17.12
2023-04-27T03:00:47.165Z,17.11
2023-04-27T03:03:17.209Z,17.10
2023-04-27T03:05:46.217Z,17.10
2023-04-27T03:08:15.251Z,17.09
2023-04-27T03:10:44.273Z,17.08
2023-04-27T03:13:13.696Z,17.08
2023-04-27T03:15:44.913Z,17.08
2023-04-27T03:18:13.581Z,17.06
2023-04-27T03:20:42.703Z,17.06
2023-04-27T03:23:12.061Z,17.06
2023-04-27T03:25:40.444Z,17.05
2023-04-27T03:28:09.427Z,17.05
2023-04-27T03:30:38.272Z,17.04
2023-04-27T03:33:08.313Z,17.03
2023-04-27T03:35:36.817Z,17.03
2023-04-27T03:38:05.818Z,17.03
2023-04-27T03:40:35.159Z,17.02
2023-04-27T03:43:03.996Z,17.01
2023-04-27T03:45:33.220Z,17.00
2023-04-27T03:48:02.195Z,17.00
2023-04-27T03:50:30.838Z,16.99
2023-04-27T03:52:58.535Z,16.99
2023-04-27T03:55:27.680Z,16.99
2023-04-27T03:57:56.077Z,16.98
2023-04-27T04:00:25.021Z,16.98
2023-04-27T04:02:54.445Z,16.98
2023-04-27T04:05:23.852Z,16.98
2023-04-27T04:07:52.353Z,16.96
2023-04-27T04:10:22.128Z,16.97
2023-04-27T04:12:51.521Z,16.96
2023-04-27T04:15:20.089Z,16.97
2023-04-27T04:17:51.446Z,16.96
2023-04-27T04:20:20.585Z,16.96
2023-04-27T04:22:49.442Z,16.96
2023-04-27T04:25:17.940Z,16.96
2023-04-27T04:27:46.889Z,16.95
2023-04-27T04:30:15.820Z,16.96
2023-04-27T04:32:44.904Z,16.97
2023-04-27T04:35:13.960Z,16.97
2023-04-27T04:37:42.059Z,16.98
2023-04-27T04:40:10.895Z,16.98
2023-04-27T04:42:40.241Z,16.98
2023-04-27T04:45:09.819Z,16.99
2023-04-27T04:47:38.625Z,17.00
2023-04-27T04:50:07.101Z,17.01
2023-04-27T04:52:36.197Z,17.02
2023-04-27T04:55:04.831Z,17.03
2023-04-27T04:57:33.878Z,17.03
2023-04-27T05:00:02.717Z,17.04
2023-04-27T05:02:31.922Z,17.06
2023-04-27T05:05:01.408Z,17.08
2023-04-27T05:07:30.214Z,17.10
2023-04-27T05:09:59.019Z,17.13
2023-04-27T05:12:27.293Z,17.15
2023-04-27T05:14:57.136Z,17.15
2023-04-27T05:17:27.557Z,17.17
2023-04-27T05:19:56.787Z,17.19
2023-04-27T05:22:25.056Z,17.20
2023-04-27T05:24:53.936Z,17.23
2023-04-27T05:27:23.290Z,17.22
2023-04-27T05:29:52.122Z,17.25
2023-04-27T05:32:20.958Z,17.27
2023-04-27T05:34:50.175Z,17.29
2023-04-27T05:37:19.507Z,17.31
2023-04-27T05:39:48.809Z,17.33
2023-04-27T05:42:17.889Z,17.34
2023-04-27T05:44:46.688Z,17.36
2023-04-27T05:47:16.011Z,17.38
2023-04-27T05:49:45.334Z,17.40
2023-04-27T05:52:14.228Z,17.41
2023-04-27T05:54:43.039Z,17.42
2023-04-27T05:57:11.957Z,17.44
2023-04-27T05:59:41.351Z,17.47
2023-04-27T06:02:10.218Z,17.49
2023-04-27T06:04:39.020Z,17.51
2023-04-27T06:07:08.332Z,17.51
2023-04-27T06:09:37.660Z,17.55
2023-04-27T06:12:06.986Z,17.59
2023-04-27T06:14:36.301Z,17.60
2023-04-27T06:17:05.702Z,17.63
2023-04-27T06:19:35.046Z,17.63
2023-04-27T06:22:04.442Z,17.66
2023-04-27T06:24:33.732Z,17.66
2023-04-27T06:27:03.054Z,17.68
2023-04-27T06:29:31.977Z,17.71
2023-04-27T06:32:00.930Z,17.71
2023-04-27T06:34:30.332Z,17.75
2023-04-27T06:36:59.624Z,17.76
2023-04-27T06:39:28.492Z,17.77
2023-04-27T06:41:57.804Z,17.79
2023-04-27T06:44:25.966Z,17.80
2023-04-27T06:46:54.261Z,17.80
2023-04-27T06:49:23.641Z,17.83
2023-04-27T06:51:53.089Z,17.85
2023-04-27T06:54:22.329Z,17.88
2023-04-27T06:56:51.764Z,17.91
2023-04-27T06:59:21.241Z,17.93
2023-04-27T07:01:50.214Z,17.95
2023-04-27T07:04:19.251Z,17.98
2023-04-27T07:06:48.729Z,18.01
2023-04-27T07:09:27.108Z,18.04
2023-04-27T07:11:56.232Z,18.10
2023-04-27T07:14:25.112Z,18.14
2023-04-27T07:16:54.410Z,18.17
2023-04-27T07:19:23.781Z,18.21
2023-04-27T07:21:52.786Z,18.26
2023-04-27T07:24:22.108Z,18.34
2023-04-27T07:26:51.331Z,18.42
2023-04-27T07:29:27.200Z,18.54
2023-04-27T07:31:56.716Z,18.67
2023-04-27T07:34:25.312Z,18.79
2023-04-27T07:36:54.726Z,18.91
2023-04-27T07:39:23.701Z,19.04
2023-04-27T07:41:52.595Z,19.21
2023-04-27T07:44:21.996Z,19.35
2023-04-27T07:46:51.060Z,19.51
2023-04-27T07:49:19.789Z,19.63
2023-04-27T07:51:49.137Z,19.75
2023-04-27T07:54:18.113Z,19.86
2023-04-27T07:56:47.536Z,19.99
2023-04-27T07:59:17.290Z,20.14
2023-04-27T08:01:46.272Z,20.29
2023-04-27T08:04:15.996Z,20.44
2023-04-27T08:06:46.346Z,20.59
2023-04-27T08:09:16.256Z,20.74
2023-04-27T08:11:45.199Z,20.90
2023-04-27T08:14:13.827Z,21.09
2023-04-27T08:16:43.104Z,21.29
2023-04-27T08:19:13.065Z,21.52
2023-04-27T08:21:42.224Z,21.77
2023-04-27T08:24:11.395Z,22.04
2023-04-27T08:26:40.676Z,22.28
2023-04-27T08:29:23.703Z,22.47
2023-04-27T08:31:57.074Z,22.68
2023-04-27T08:34:26.500Z,22.85
2023-04-27T08:36:55.489Z,23.07
2023-04-27T08:39:24.249Z,23.29
2023-04-27T08:41:53.624Z,23.51
2023-04-27T08:44:22.426Z,23.71
2023-04-27T08:46:51.555Z,23.93
2023-04-27T08:49:20.198Z,24.21
2023-04-27T08:51:49.879Z,24.43
2023-04-27T08:54:19.073Z,24.66
2023-04-27T08:56:47.743Z,24.89
2023-04-27T08:59:17.405Z,25.12
2023-04-27T09:01:46.854Z,25.31
2023-04-27T09:04:16.481Z,25.46
2023-04-27T09:06:46.002Z,25.60
2023-04-27T09:09:15.074Z,25.71
2023-04-27T09:11:44.476Z,25.85
2023-04-27T09:14:13.226Z,26.00
2023-04-27T09:16:42.123Z,26.13
2023-04-27T09:19:11.157Z,26.23
2023-04-27T09:21:40.512Z,26.39
2023-04-27T09:24:09.761Z,26.58
2023-04-27T09:26:38.321Z,26.78
2023-04-27T09:29:07.009Z,26.98
2023-04-27T09:31:36.353Z,27.18
2023-04-27T09:34:04.910Z,27.39
2023-04-27T09:36:33.574Z,27.60
2023-04-27T09:39:02.794Z,27.80
2023-04-27T09:41:31.520Z,28.02
2023-04-27T09:44:00.059Z,28.24
2023-04-27T09:46:28.397Z,28.43
2023-04-27T09:48:57.715Z,28.56
2023-04-27T09:51:26.580Z,28.65
2023-04-27T09:53:55.835Z,28.73
2023-04-27T09:56:24.577Z,28.82
2023-04-27T09:58:54.128Z,29.02
2023-04-27T10:01:22.904Z,29.30
2023-04-27T10:03:51.909Z,29.64
2023-04-27T10:06:21.182Z,29.93
2023-04-27T10:08:50.560Z,30.24
2023-04-27T10:11:19.868Z,30.51
2023-04-27T10:13:49.049Z,30.65
2023-04-27T10:16:18.218Z,30.72
2023-04-27T10:18:47.085Z,30.78
2023-04-27T10:21:15.737Z,30.79
2023-04-27T10:23:45.026Z,30.87
2023-04-27T10:26:14.530Z,30.97
2023-04-27T10:28:43.885Z,31.08
2023-04-27T10:31:13.170Z,31.18
2023-04-27T10:33:42.241Z,31.30
2023-04-27T10:36:11.520Z,31.43
2023-04-27T10:38:42.347Z,31.64
2023-04-27T10:41:15.347Z,31.80
2023-04-27T10:43:50.140Z,31.85
2023-04-27T10:46:19.180Z,31.85
2023-04-27T10:48:48.364Z,31.97
2023-04-27T10:51:16.660Z,32.11
2023-04-27T10:53:45.984Z,32.33
2023-04-27T10:56:15.320Z,32.50
2023-04-27T10:58:48.915Z,32.61
2023-04-27T11:01:18.429Z,32.70
2023-04-27T11:03:47.928Z,32.80
2023-04-27T11:06:17.506Z,32.99
2023-04-27T11:08:46.019Z,33.18
2023-04-27T11:11:16.566Z,33.42
2023-04-27T11:13:46.008Z,33.81
2023-04-27T11:16:15.339Z,34.12
2023-04-27T11:18:44.771Z,34.44
2023-04-27T11:21:14.105Z,34.67
2023-04-27T11:23:43.425Z,34.85
2023-04-27T11:26:12.738Z,35.03
2023-04-27T11:28:42.058Z,35.25
2023-04-27T11:31:10.649Z,35.45
2023-04-27T11:33:39.374Z,35.64
2023-04-27T11:36:08.306Z,35.80
2023-04-27T11:38:37.756Z,35.95
2023-04-27T11:41:06.302Z,36.06
2023-04-27T11:43:34.932Z,36.22
2023-04-27T11:46:03.942Z,36.48
2023-04-27T11:48:32.060Z,36.69
2023-04-27T11:51:01.571Z,36.71
2023-04-27T11:53:30.513Z,36.47
2023-04-27T11:55:59.366Z,36.21
2023-04-27T11:58:28.244Z,36.06
2023-04-27T12:00:58.687Z,35.81
2023-04-27T12:03:29.224Z,35.55
2023-04-27T12:06:11.679Z,35.37
2023-04-27T12:08:47.067Z,35.57
2023-04-27T12:11:15.951Z,35.75
2023-04-27T12:13:45.249Z,35.98
2023-04-27T12:16:14.513Z,36.19
2023-04-27T12:18:43.852Z,36.34
2023-04-27T12:21:12.572Z,36.37
2023-04-27T12:23:41.408Z,36.16
2023-04-27T12:26:10.255Z,35.73
2023-04-27T12:28:39.117Z,35.24
2023-04-27T12:31:08.547Z,34.78
2023-04-27T12:33:37.998Z,34.37
2023-04-27T12:36:07.345Z,33.93
2023-04-27T12:38:36.568Z,33.43
2023-04-27T12:41:05.386Z,32.96
2023-04-27T12:43:34.658Z,32.53
2023-04-27T12:46:03.707Z,32.15
2023-04-27T12:48:32.403Z,31.80
2023-04-27T12:51:01.298Z,31.47
2023-04-27T12:53:30.819Z,31.35
2023-04-27T12:55:59.643Z,31.50
2023-04-27T12:58:28.976Z,31.85
2023-04-27T13:00:57.760Z,32.33
2023-04-27T13:03:26.873Z,32.69
2023-04-27T13:05:55.601Z,32.67
2023-04-27T13:08:24.275Z,31.65
2023-04-27T13:10:53.036Z,31.12
2023-04-27T13:13:22.403Z,31.15
2023-04-27T13:15:51.843Z,30.77
2023-04-27T13:18:20.833Z,30.26
2023-04-27T13:20:49.717Z,30.20
2023-04-27T13:23:19.081Z,30.75
2023-04-27T13:25:47.962Z,31.21
2023-04-27T13:28:17.400Z,31.48
2023-04-27T13:30:46.655Z,31.75
2023-04-27T13:33:23.154Z,32.01
2023-04-27T13:35:53.073Z,32.33
2023-04-27T13:38:22.492Z,32.32
2023-04-27T13:40:51.817Z,32.00
2023-04-27T13:43:20.724Z,31.13
2023-04-27T13:45:49.559Z,30.75
2023-04-27T13:48:18.888Z,30.68
2023-04-27T13:50:48.279Z,30.56
2023-04-27T13:53:17.574Z,30.42
2023-04-27T13:55:46.484Z,30.39
2023-04-27T13:58:15.816Z,30.42
2023-04-27T14:00:45.115Z,30.50
2023-04-27T14:03:14.157Z,30.54
2023-04-27T14:05:43.423Z,30.49
2023-04-27T14:08:11.772Z,30.34
2023-04-27T14:10:40.710Z,30.31
2023-04-27T14:13:09.726Z,30.30
2023-04-27T14:15:37.855Z,30.13
2023-04-27T14:18:06.805Z,29.73
2023-04-27T14:20:35.171Z,29.22
2023-04-27T14:23:03.374Z,28.75
2023-04-27T14:25:32.274Z,28.31
2023-04-27T14:28:00.953Z,27.88
2023-04-27T14:30:29.729Z,27.54
2023-04-27T14:32:58.899Z,27.18
2023-04-27T14:35:27.143Z,26.90
2023-04-27T14:37:55.668Z,26.63
2023-04-27T14:40:24.235Z,26.37
2023-04-27T14:42:53.367Z,26.17
2023-04-27T14:45:24.136Z,26.00
2023-04-27T14:47:53.585Z,25.84
2023-04-27T14:50:22.522Z,25.68
2023-04-27T14:52:51.912Z,25.55
2023-04-27T14:55:21.157Z,25.43
2023-04-27T14:57:50.481Z,25.29
2023-04-27T15:00:19.356Z,25.16
2023-04-27T15:02:48.190Z,25.03
2023-04-27T15:05:17.306Z,24.96
2023-04-27T15:07:45.611Z,24.86
2023-04-27T15:10:15.035Z,24.80
2023-04-27T15:12:44.467Z,24.73
2023-04-27T15:15:13.450Z,24.62
2023-04-27T15:17:41.716Z,24.50
2023-04-27T15:20:10.719Z,24.39
2023-04-27T15:22:39.518Z,24.29
2023-04-27T15:25:08.869Z,24.20
2023-04-27T15:27:37.952Z,24.10
2023-04-27T15:30:06.703Z,24.03
2023-04-27T15:32:36.058Z,23.96
2023-04-27T15:35:04.803Z,23.90
2023-04-27T15:37:33.748Z,23.84
2023-04-27T15:40:03.010Z,23.78
2023-04-27T15:42:32.370Z,23.70
2023-04-27T15:45:01.339Z,23.63
2023-04-27T15:47:30.389Z,23.54
2023-04-27T15:49:59.381Z,23.45
2023-04-27T15:52:27.533Z,23.35
2023-04-27T15:54:56.398Z,23.27
2023-04-27T15:57:25.122Z,23.20
2023-04-27T15:59:54.414Z,23.11
2023-04-27T16:02:23.413Z,23.05
2023-04-27T16:04:52.769Z,23.02
2023-04-27T16:07:22.051Z,22.97
2023-04-27T16:09:51.422Z,22.92
2023-04-27T16:12:20.343Z,22.91
2023-04-27T16:14:49.156Z,22.87
2023-04-27T16:17:18.405Z,22.83
2023-04-27T16:19:47.578Z,22.77
2023-04-27T16:22:16.616Z,22.74
2023-04-27T16:24:45.349Z,22.67
2023-04-27T16:27:13.537Z,22.61
2023-04-27T16:29:42.273Z,22.57
2023-04-27T16:32:11.884Z,22.53
2023-04-27T16:34:40.860Z,22.49
2023-04-27T16:37:10.020Z,22.45
2023-04-27T16:39:38.541Z,22.40
2023-04-27T16:42:07.226Z,22.36
2023-04-27T16:44:36.151Z,22.28
2023-04-27T16:47:05.684Z,22.20
2023-04-27T16:49:35.130Z,22.14
2023-04-27T16:52:04.353Z,22.07
2023-04-27T16:54:33.666Z,21.99
2023-04-27T16:57:02.440Z,21.93
2023-04-27T16:59:31.550Z,21.87
2023-04-27T17:02:12.390Z,21.82
2023-04-27T17:04:46.089Z,21.74
2023-04-27T17:07:15.460Z,21.70
2023-04-27T17:09:44.851Z,21.63
2023-04-27T17:12:14.020Z,21.59
2023-04-27T17:14:42.881Z,21.55
2023-04-27T17:17:11.898Z,21.50
2023-04-27T17:19:40.858Z,21.48
2023-04-27T17:22:10.259Z,21.46
2023-04-27T17:24:39.105Z,21.45
2023-04-27T17:27:08.320Z,21.41
2023-04-27T17:29:37.336Z,21.36
2023-04-27T17:32:05.899Z,21.32
2023-04-27T17:34:34.798Z,21.25
2023-04-27T17:37:04.037Z,21.21
2023-04-27T17:39:32.791Z,21.18
2023-04-27T17:42:02.071Z,21.14
2023-04-27T17:44:31.405Z,21.09
2023-04-27T17:47:00.319Z,21.04
2023-04-27T17:49:29.692Z,20.99
2023-04-27T17:51:58.904Z,20.94
2023-04-27T17:54:29.912Z,20.89
2023-04-27T17:56:59.411Z,20.85
2023-04-27T17:59:28.712Z,20.81
2023-04-27T18:01:57.808Z,20.77
2023-04-27T18:04:26.722Z,20.73
2023-04-27T18:06:56.170Z,20.70
2023-04-27T18:09:25.426Z,20.65
2023-04-27T18:11:54.709Z,20.61
2023-04-27T18:14:23.565Z,20.57
2023-04-27T18:16:52.981Z,20.53
2023-04-27T18:19:22.279Z,20.51
2023-04-27T18:21:51.637Z,20.48
2023-04-27T18:24:20.271Z,20.44
2023-04-27T18:26:49.013Z,20.41
2023-04-27T18:29:18.307Z,20.37
2023-04-27T18:31:47.293Z,20.33
2023-04-27T18:34:16.177Z,20.31
2023-04-27T18:36:45.554Z,20.27
2023-04-27T18:39:15.066Z,20.24
2023-04-27T18:41:44.096Z,20.21
2023-04-27T18:44:13.594Z,20.19
2023-04-27T18:46:43.231Z,20.17
2023-04-27T18:49:12.876Z,20.16
2023-04-27T18:51:42.135Z,20.13
2023-04-27T18:54:10.003Z,20.11
2023-04-27T18:56:38.756Z,20.08
2023-04-27T18:59:08.045Z,20.07
2023-04-27T19:01:37.465Z,20.06
2023-04-27T19:04:06.651Z,20.04
2023-04-27T19:06:36.305Z,20.01
2023-04-27T19:09:05.151Z,19.99
2023-04-27T19:11:33.879Z,19.98
2023-04-27T19:14:03.142Z,19.96
2023-04-27T19:16:32.509Z,19.94
2023-04-27T19:19:01.473Z,19.93
2023-04-27T19:21:30.750Z,19.92
2023-04-27T19:24:00.181Z,19.91
2023-04-27T19:26:29.788Z,19.89
2023-04-27T19:28:58.356Z,19.87
2023-04-27T19:31:26.823Z,19.85
2023-04-27T19:33:55.792Z,19.84
2023-04-27T19:36:33.309Z,19.83
2023-04-27T19:39:02.595Z,19.81
2023-04-27T19:41:31.512Z,19.80
2023-04-27T19:44:00.918Z,19.79
2023-04-27T19:46:29.937Z,19.79
2023-04-27T19:48:58.833Z,19.78
2023-04-27T19:51:27.683Z,19.77
2023-04-27T19:53:56.142Z,19.75
2023-04-27T19:56:24.328Z,19.73
2023-04-27T19:58:53.681Z,19.74
2023-04-27T20:01:22.608Z,19.71
2023-04-27T20:03:52.085Z,19.70
2023-04-27T20:06:21.520Z,19.69
2023-04-27T20:08:50.237Z,19.69
2023-04-27T20:11:19.438Z,19.67
2023-04-27T20:13:48.629Z,19.67
2023-04-27T20:16:16.794Z,19.65
2023-04-27T20:18:45.612Z,19.63
2023-04-27T20:21:14.976Z,19.62
2023-04-27T20:23:45.235Z,19.62
2023-04-27T20:26:14.167Z,19.59
2023-04-27T20:28:42.290Z,19.59
2023-04-27T20:31:11.156Z,19.58
2023-04-27T20:33:40.472Z,19.58
2023-04-27T20:36:17.119Z,19.57
2023-04-27T20:38:47.032Z,19.56
2023-04-27T20:41:16.366Z,19.54
2023-04-27T20:43:45.424Z,19.54
2023-04-27T20:46:14.091Z,19.53
2023-04-27T20:48:43.343Z,19.52
2023-04-27T20:51:12.767Z,19.51
2023-04-27T20:53:42.086Z,19.50
2023-04-27T20:56:11.339Z,19.49
2023-04-27T20:58:40.605Z,19.48
2023-04-27T21:01:10.019Z,19.48
2023-04-27T21:03:39.451Z,19.47
2023-04-27T21:06:08.481Z,19.46
2023-04-27T21:08:37.175Z,19.46
2023-04-27T21:11:06.415Z,19.45
2023-04-27T21:13:35.178Z,19.43
2023-04-27T21:16:04.574Z,19.43
2023-04-27T21:18:33.739Z,19.42
2023-04-27T21:21:02.107Z,19.41
2023-04-27T21:23:30.695Z,19.41
2023-04-27T21:25:59.424Z,19.40
2023-04-27T21:28:28.619Z,19.38
2023-04-27T21:30:57.917Z,19.38
2023-04-27T21:33:27.186Z,19.37
2023-04-27T21:35:56.030Z,19.36
2023-04-27T21:38:25.279Z,19.35
2023-04-27T21:40:54.610Z,19.35
2023-04-27T21:43:23.980Z,19.33
2023-04-27T21:45:53.410Z,19.31
2023-04-27T21:48:22.305Z,19.31
2023-04-27T21:50:56.340Z,19.31
2023-04-27T21:53:25.616Z,19.31
2023-04-27T21:55:54.368Z,19.29
2023-04-27T21:58:23.833Z,19.29
2023-04-27T22:00:53.320Z,19.28
2023-04-27T22:03:23.207Z,19.27
2023-04-27T22:05:52.921Z,19.26
2023-04-27T22:08:22.252Z,19.26
2023-04-27T22:10:51.671Z,19.26
2023-04-27T22:13:20.445Z,19.23
2023-04-27T22:15:49.445Z,19.24
2023-04-27T22:18:18.878Z,19.23
2023-04-27T22:20:48.300Z,19.23
2023-04-27T22:23:17.672Z,19.22
2023-04-27T22:25:46.639Z,19.21
2023-04-27T22:28:14.753Z,19.22
2023-04-27T22:30:43.993Z,19.21
2023-04-27T22:33:12.863Z,19.20
2023-04-27T22:35:41.913Z,19.20
2023-04-27T22:38:10.219Z,19.19
2023-04-27T22:40:39.860Z,19.18
2023-04-27T22:43:08.784Z,19.18
2023-04-27T22:45:38.963Z,19.16
2023-04-27T22:48:08.104Z,19.16
2023-04-27T22:50:37.459Z,19.15
2023-04-27T22:53:06.566Z,19.15
2023-04-27T22:55:35.139Z,19.15
2023-04-27T22:58:04.279Z,19.15
2023-04-27T23:00:33.535Z,19.14
2023-04-27T23:03:02.884Z,19.13
2023-04-27T23:05:32.197Z,19.12
2023-04-27T23:08:01.561Z,19.12
2023-04-27T23:10:30.814Z,19.10
2023-04-27T23:13:00.141Z,19.10
2023-04-27T23:15:29.485Z,19.10
2023-04-27T23:17:58.987Z,19.09
2023-04-27T23:20:29.204Z,19.08
2023-04-27T23:22:58.357Z,19.07
2023-04-27T23:25:27.298Z,19.08
2023-04-27T23:27:56.751Z,19.06
2023-04-27T23:30:25.981Z,19.07
2023-04-27T23:32:55.066Z,19.05
2023-04-27T23:35:23.378Z,19.05
2023-04-27T23:37:52.601Z,19.05
2023-04-27T23:40:21.180Z,19.04
2023-04-27T23:42:51.693Z,19.03
2023-04-27T23:45:21.399Z,19.03
2023-04-27T23:47:50.809Z,19.01
2023-04-27T23:50:20.111Z,19.01
2023-04-27T23:52:49.359Z,19.00
2023-04-27T23:55:18.722Z,19.00
2023-04-27T23:57:47.512Z,19.00
